sensor_id;sensor_type;location;lat;lon;timestamp;temperature;humidity
13713;DHT22;6928;50.546;7.120;2023-04-03T00:01:43;5.31;76.68
13713;DHT22;6928;50.546;7.120;2023-04-03T00:04:10;5.27;75.80
13713;DHT22;6928;50.546;7.120;2023-04-03T00:06:36;5.07;76.19
13713;DHT22;6928;50.546;7.120;2023-04-03T00:09:03;5.25;77.07
13713;DHT22;6928;50.546;7.120;2023-04-03T00:11:30;5.35;77.16
13713;DHT22;6928;50.546;7.120;2023-04-03T00:13:57;5.31;77.31
13713;DHT22;6928;50.546;7.120;2023-04-03T00:16:25;5.30;77.61
13713;DHT22;6928;50.546;7.120;2023-04-03T00:18:51;5.25;77.67
13713;DHT22;6928;50.546;7.120;2023-04-03T00:21:18;5.30;77.97
13713;DHT22;6928;50.546;7.120;2023-04-03T00:23:45;5.38;77.82
13713;DHT22;6928;50.546;7.120;2023-04-03T00:26:12;5.42;77.81
13713;DHT22;6928;50.546;7.120;2023-04-03T00:28:39;5.34;78.16
13713;DHT22;6928;50.546;7.120;2023-04-03T00:31:06;4.97;77.77
13713;DHT22;6928;50.546;7.120;2023-04-03T00:33:34;5.18;78.50
13713;DHT22;6928;50.546;7.120;2023-04-03T00:36:06;5.17;78.27
13713;DHT22;6928;50.546;7.120;2023-04-03T00:38:33;5.22;78.90
13713;DHT22;6928;50.546;7.120;2023-04-03T00:41:00;5.30;78.46
13713;DHT22;6928;50.546;7.120;2023-04-03T00:43:27;5.30;78.17
13713;DHT22;6928;50.546;7.120;2023-04-03T00:45:57;5.46;78.29
13713;DHT22;6928;50.546;7.120;2023-04-03T00:48:28;5.38;78.55
13713;DHT22;6928;50.546;7.120;2023-04-03T00:50:57;5.38;79.28
13713;DHT22;6928;50.546;7.120;2023-04-03T00:53:27;5.32;77.22
13713;DHT22;6928;50.546;7.120;2023-04-03T00:55:56;5.42;77.36
13713;DHT22;6928;50.546;7.120;2023-04-03T00:58:31;5.36;77.64
13713;DHT22;6928;50.546;7.120;2023-04-03T01:01:05;5.38;77.94
13713;DHT22;6928;50.546;7.120;2023-04-03T01:03:32;5.41;78.63
13713;DHT22;6928;50.546;7.120;2023-04-03T01:06:01;5.27;77.32
13713;DHT22;6928;50.546;7.120;2023-04-03T01:08:28;5.31;77.65
13713;DHT22;6928;50.546;7.120;2023-04-03T01:10:55;5.20;78.79
13713;DHT22;6928;50.546;7.120;2023-04-03T01:13:26;5.32;78.67
13713;DHT22;6928;50.546;7.120;2023-04-03T01:15:53;5.22;78.67
13713;DHT22;6928;50.546;7.120;2023-04-03T01:18:21;5.21;78.58
13713;DHT22;6928;50.546;7.120;2023-04-03T01:21:42;5.08;78.14
13713;DHT22;6928;50.546;7.120;2023-04-03T01:24:28;5.08;78.79
13713;DHT22;6928;50.546;7.120;2023-04-03T01:26:56;5.07;78.61
13713;DHT22;6928;50.546;7.120;2023-04-03T01:29:23;5.25;78.54
13713;DHT22;6928;50.546;7.120;2023-04-03T01:31:55;5.21;77.76
13713;DHT22;6928;50.546;7.120;2023-04-03T01:34:24;5.11;78.30
13713;DHT22;6928;50.546;7.120;2023-04-03T01:36:51;5.08;78.52
13713;DHT22;6928;50.546;7.120;2023-04-03T01:39:19;5.03;78.03
13713;DHT22;6928;50.546;7.120;2023-04-03T01:41:46;5.15;78.03
13713;DHT22;6928;50.546;7.120;2023-04-03T01:44:14;5.22;77.50
13713;DHT22;6928;50.546;7.120;2023-04-03T01:46:41;5.14;77.96
13713;DHT22;6928;50.546;7.120;2023-04-03T01:49:09;4.94;78.76
13713;DHT22;6928;50.546;7.120;2023-04-03T01:51:36;5.07;78.41
13713;DHT22;6928;50.546;7.120;2023-04-03T01:54:03;5.15;78.50
13713;DHT22;6928;50.546;7.120;2023-04-03T01:56:30;5.03;78.87
13713;DHT22;6928;50.546;7.120;2023-04-03T01:58:56;5.10;78.46
13713;DHT22;6928;50.546;7.120;2023-04-03T02:01:23;5.04;78.95
13713;DHT22;6928;50.546;7.120;2023-04-03T02:03:51;5.05;77.94
13713;DHT22;6928;50.546;7.120;2023-04-03T02:06:19;5.17;78.31
13713;DHT22;6928;50.546;7.120;2023-04-03T02:08:46;5.14;78.23
13713;DHT22;6928;50.546;7.120;2023-04-03T02:11:13;4.89;79.50
13713;DHT22;6928;50.546;7.120;2023-04-03T02:13:40;4.90;79.19
13713;DHT22;6928;50.546;7.120;2023-04-03T02:16:08;4.96;78.11
13713;DHT22;6928;50.546;7.120;2023-04-03T02:18:36;4.90;78.87
13713;DHT22;6928;50.546;7.120;2023-04-03T02:21:03;4.94;77.66
13713;DHT22;6928;50.546;7.120;2023-04-03T02:23:32;4.83;78.40
13713;DHT22;6928;50.546;7.120;2023-04-03T02:26:08;4.90;78.90
13713;DHT22;6928;50.546;7.120;2023-04-03T02:28:35;4.83;79.33
13713;DHT22;6928;50.546;7.120;2023-04-03T02:31:02;4.77;79.47
13713;DHT22;6928;50.546;7.120;2023-04-03T02:33:29;4.76;79.70
13713;DHT22;6928;50.546;7.120;2023-04-03T02:35:57;4.76;79.70
13713;DHT22;6928;50.546;7.120;2023-04-03T02:38:25;4.80;80.05
13713;DHT22;6928;50.546;7.120;2023-04-03T02:40:53;5.01;79.72
13713;DHT22;6928;50.546;7.120;2023-04-03T02:43:21;4.97;80.14
13713;DHT22;6928;50.546;7.120;2023-04-03T02:45:47;4.79;80.67
13713;DHT22;6928;50.546;7.120;2023-04-03T02:48:14;4.62;80.80
13713;DHT22;6928;50.546;7.120;2023-04-03T02:50:42;4.76;80.89
13713;DHT22;6928;50.546;7.120;2023-04-03T02:53:08;4.65;81.09
13713;DHT22;6928;50.546;7.120;2023-04-03T02:55:35;4.48;81.32
13713;DHT22;6928;50.546;7.120;2023-04-03T02:58:03;4.53;81.55
13713;DHT22;6928;50.546;7.120;2023-04-03T03:00:30;4.73;80.76
13713;DHT22;6928;50.546;7.120;2023-04-03T03:02:57;4.72;80.71
13713;DHT22;6928;50.546;7.120;2023-04-03T03:05:24;4.82;81.07
13713;DHT22;6928;50.546;7.120;2023-04-03T03:07:50;4.52;80.91
13713;DHT22;6928;50.546;7.120;2023-04-03T03:10:17;4.45;81.26
13713;DHT22;6928;50.546;7.120;2023-04-03T03:12:44;4.58;81.38
13713;DHT22;6928;50.546;7.120;2023-04-03T03:15:12;4.49;81.59
13713;DHT22;6928;50.546;7.120;2023-04-03T03:17:41;4.59;81.39
13713;DHT22;6928;50.546;7.120;2023-04-03T03:20:08;4.49;80.93
13713;DHT22;6928;50.546;7.120;2023-04-03T03:22:36;4.44;81.49
13713;DHT22;6928;50.546;7.120;2023-04-03T03:25:04;4.45;81.40
13713;DHT22;6928;50.546;7.120;2023-04-03T03:27:31;4.29;81.47
13713;DHT22;6928;50.546;7.120;2023-04-03T03:29:58;4.36;81.58
13713;DHT22;6928;50.546;7.120;2023-04-03T03:32:26;4.51;81.51
13713;DHT22;6928;50.546;7.120;2023-04-03T03:34:53;4.31;82.41
13713;DHT22;6928;50.546;7.120;2023-04-03T03:37:20;4.45;82.11
13713;DHT22;6928;50.546;7.120;2023-04-03T03:39:46;4.38;82.09
13713;DHT22;6928;50.546;7.120;2023-04-03T03:42:13;4.55;81.55
13713;DHT22;6928;50.546;7.120;2023-04-03T03:44:40;4.59;81.65
13713;DHT22;6928;50.546;7.120;2023-04-03T03:47:06;4.46;81.48
13713;DHT22;6928;50.546;7.120;2023-04-03T03:49:37;4.35;81.77
13713;DHT22;6928;50.546;7.120;2023-04-03T03:52:04;4.20;82.23
13713;DHT22;6928;50.546;7.120;2023-04-03T03:54:31;4.28;82.33
13713;DHT22;6928;50.546;7.120;2023-04-03T03:56:57;4.28;81.99
13713;DHT22;6928;50.546;7.120;2023-04-03T03:59:24;4.21;82.58
13713;DHT22;6928;50.546;7.120;2023-04-03T04:01:51;4.24;82.72
13713;DHT22;6928;50.546;7.120;2023-04-03T04:04:18;4.31;82.52
13713;DHT22;6928;50.546;7.120;2023-04-03T04:06:46;4.14;83.69
13713;DHT22;6928;50.546;7.120;2023-04-03T04:09:13;4.18;82.74
13713;DHT22;6928;50.546;7.120;2023-04-03T04:11:40;4.18;82.11
13713;DHT22;6928;50.546;7.120;2023-04-03T04:14:07;3.79;82.76
13713;DHT22;6928;50.546;7.120;2023-04-03T04:16:35;4.21;82.24
13713;DHT22;6928;50.546;7.120;2023-04-03T04:19:02;4.15;82.00
13713;DHT22;6928;50.546;7.120;2023-04-03T04:21:29;4.01;82.25
13713;DHT22;6928;50.546;7.120;2023-04-03T04:23:57;3.93;82.50
13713;DHT22;6928;50.546;7.120;2023-04-03T04:26:24;4.00;82.46
13713;DHT22;6928;50.546;7.120;2023-04-03T04:28:51;3.95;82.51
13713;DHT22;6928;50.546;7.120;2023-04-03T04:31:18;3.90;82.65
13713;DHT22;6928;50.546;7.120;2023-04-03T04:33:45;4.04;83.21
13713;DHT22;6928;50.546;7.120;2023-04-03T04:36:11;3.60;83.87
13713;DHT22;6928;50.546;7.120;2023-04-03T04:38:40;3.42;84.45
13713;DHT22;6928;50.546;7.120;2023-04-03T04:41:08;3.76;83.58
13713;DHT22;6928;50.546;7.120;2023-04-03T04:43:35;3.81;83.15
13713;DHT22;6928;50.546;7.120;2023-04-03T04:46:03;3.72;83.29
13713;DHT22;6928;50.546;7.120;2023-04-03T04:48:30;3.56;83.59
13713;DHT22;6928;50.546;7.120;2023-04-03T04:50:57;3.60;83.22
13713;DHT22;6928;50.546;7.120;2023-04-03T04:53:24;3.42;83.66
13713;DHT22;6928;50.546;7.120;2023-04-03T04:55:51;3.49;83.62
13713;DHT22;6928;50.546;7.120;2023-04-03T04:58:20;3.66;82.65
13713;DHT22;6928;50.546;7.120;2023-04-03T05:00:47;3.48;81.51
13713;DHT22;6928;50.546;7.120;2023-04-03T05:03:14;3.26;82.24
13713;DHT22;6928;50.546;7.120;2023-04-03T05:05:41;3.39;82.15
13713;DHT22;6928;50.546;7.120;2023-04-03T05:08:08;3.42;82.45
13713;DHT22;6928;50.546;7.120;2023-04-03T05:10:36;3.31;82.59
13713;DHT22;6928;50.546;7.120;2023-04-03T05:13:02;3.00;83.50
13713;DHT22;6928;50.546;7.120;2023-04-03T05:15:30;2.84;84.44
13713;DHT22;6928;50.546;7.120;2023-04-03T05:17:57;2.87;84.08
13713;DHT22;6928;50.546;7.120;2023-04-03T05:20:24;3.07;83.51
13713;DHT22;6928;50.546;7.120;2023-04-03T05:22:51;3.04;83.45
13713;DHT22;6928;50.546;7.120;2023-04-03T05:25:19;2.94;83.69
13713;DHT22;6928;50.546;7.120;2023-04-03T05:27:46;2.79;83.92
13713;DHT22;6928;50.546;7.120;2023-04-03T05:30:13;2.85;84.29
13713;DHT22;6928;50.546;7.120;2023-04-03T05:32:42;2.76;84.02
13713;DHT22;6928;50.546;7.120;2023-04-03T05:35:09;3.08;83.48
13713;DHT22;6928;50.546;7.120;2023-04-03T05:37:36;2.81;83.64
13713;DHT22;6928;50.546;7.120;2023-04-03T05:40:04;3.08;83.39
13713;DHT22;6928;50.546;7.120;2023-04-03T05:42:32;3.04;82.89
13713;DHT22;6928;50.546;7.120;2023-04-03T05:44:58;3.07;83.72
13713;DHT22;6928;50.546;7.120;2023-04-03T05:47:25;2.91;83.30
13713;DHT22;6928;50.546;7.120;2023-04-03T05:49:53;2.98;83.44
13713;DHT22;6928;50.546;7.120;2023-04-03T05:52:23;2.91;83.74
13713;DHT22;6928;50.546;7.120;2023-04-03T05:54:52;3.28;82.83
13713;DHT22;6928;50.546;7.120;2023-04-03T05:57:19;3.38;82.19
13713;DHT22;6928;50.546;7.120;2023-04-03T05:59:47;3.33;82.56
13713;DHT22;6928;50.546;7.120;2023-04-03T06:02:18;3.33;81.79
13713;DHT22;6928;50.546;7.120;2023-04-03T06:04:45;3.46;82.75
13713;DHT22;6928;50.546;7.120;2023-04-03T06:07:16;3.41;81.98
13713;DHT22;6928;50.546;7.120;2023-04-03T06:09:44;3.53;81.88
13713;DHT22;6928;50.546;7.120;2023-04-03T06:12:11;3.62;81.34
13713;DHT22;6928;50.546;7.120;2023-04-03T06:14:38;3.60;81.05
13713;DHT22;6928;50.546;7.120;2023-04-03T06:17:05;3.79;80.20
13713;DHT22;6928;50.546;7.120;2023-04-03T06:19:34;3.93;79.72
13713;DHT22;6928;50.546;7.120;2023-04-03T06:22:01;4.11;79.44
13713;DHT22;6928;50.546;7.120;2023-04-03T06:24:31;4.01;78.51
13713;DHT22;6928;50.546;7.120;2023-04-03T06:26:58;4.39;77.99
13713;DHT22;6928;50.546;7.120;2023-04-03T06:29:25;4.44;74.15
13713;DHT22;6928;50.546;7.120;2023-04-03T06:31:52;4.82;73.01
13713;DHT22;6928;50.546;7.120;2023-04-03T06:34:18;4.72;73.21
13713;DHT22;6928;50.546;7.120;2023-04-03T06:36:45;4.72;72.23
13713;DHT22;6928;50.546;7.120;2023-04-03T06:39:14;4.66;72.59
13713;DHT22;6928;50.546;7.120;2023-04-03T06:41:43;4.70;71.54
13713;DHT22;6928;50.546;7.120;2023-04-03T06:44:10;4.84;71.10
13713;DHT22;6928;50.546;7.120;2023-04-03T06:46:38;4.59;70.83
13713;DHT22;6928;50.546;7.120;2023-04-03T06:49:05;4.59;70.35
13713;DHT22;6928;50.546;7.120;2023-04-03T06:51:34;4.69;70.09
13713;DHT22;6928;50.546;7.120;2023-04-03T06:54:05;4.66;70.26
13713;DHT22;6928;50.546;7.120;2023-04-03T06:56:34;4.96;70.37
13713;DHT22;6928;50.546;7.120;2023-04-03T06:59:02;4.86;69.86
13713;DHT22;6928;50.546;7.120;2023-04-03T07:01:30;4.94;70.49
13713;DHT22;6928;50.546;7.120;2023-04-03T07:03:57;4.66;69.23
13713;DHT22;6928;50.546;7.120;2023-04-03T07:06:24;5.04;69.34
13713;DHT22;6928;50.546;7.120;2023-04-03T07:08:52;5.11;68.58
13713;DHT22;6928;50.546;7.120;2023-04-03T07:11:19;5.21;69.19
13713;DHT22;6928;50.546;7.120;2023-04-03T07:13:45;5.05;68.65
13713;DHT22;6928;50.546;7.120;2023-04-03T07:16:14;5.38;68.67
13713;DHT22;6928;50.546;7.120;2023-04-03T07:18:41;5.36;68.43
13713;DHT22;6928;50.546;7.120;2023-04-03T07:21:07;5.14;68.20
13713;DHT22;6928;50.546;7.120;2023-04-03T07:23:34;5.12;68.91
13713;DHT22;6928;50.546;7.120;2023-04-03T07:26:02;5.27;68.67
13713;DHT22;6928;50.546;7.120;2023-04-03T07:28:29;5.46;68.56
13713;DHT22;6928;50.546;7.120;2023-04-03T07:31:00;5.59;67.47
13713;DHT22;6928;50.546;7.120;2023-04-03T07:33:29;5.38;67.30
13713;DHT22;6928;50.546;7.120;2023-04-03T07:35:56;5.11;67.55
13713;DHT22;6928;50.546;7.120;2023-04-03T07:38:24;5.10;68.53
13713;DHT22;6928;50.546;7.120;2023-04-03T07:40:51;5.39;67.44
13713;DHT22;6928;50.546;7.120;2023-04-03T07:43:20;5.53;67.88
13713;DHT22;6928;50.546;7.120;2023-04-03T07:45:48;5.42;68.07
13713;DHT22;6928;50.546;7.120;2023-04-03T07:48:16;5.66;66.99
13713;DHT22;6928;50.546;7.120;2023-04-03T07:50:44;5.31;67.53
13713;DHT22;6928;50.546;7.120;2023-04-03T07:53:11;5.41;67.28
13713;DHT22;6928;50.546;7.120;2023-04-03T07:55:39;5.20;67.43
13713;DHT22;6928;50.546;7.120;2023-04-03T07:58:09;5.70;66.63
13713;DHT22;6928;50.546;7.120;2023-04-03T08:00:37;5.70;66.18
13713;DHT22;6928;50.546;7.120;2023-04-03T08:03:04;5.63;66.79
13713;DHT22;6928;50.546;7.120;2023-04-03T08:05:31;5.66;66.70
13713;DHT22;6928;50.546;7.120;2023-04-03T08:07:59;5.62;65.73
13713;DHT22;6928;50.546;7.120;2023-04-03T08:10:26;5.56;65.82
13713;DHT22;6928;50.546;7.120;2023-04-03T08:12:53;5.99;65.91
13713;DHT22;6928;50.546;7.120;2023-04-03T08:15:20;6.31;64.70
13713;DHT22;6928;50.546;7.120;2023-04-03T08:17:47;6.27;63.77
13713;DHT22;6928;50.546;7.120;2023-04-03T08:20:14;6.32;64.54
13713;DHT22;6928;50.546;7.120;2023-04-03T08:22:43;6.18;64.48
13713;DHT22;6928;50.546;7.120;2023-04-03T08:25:12;5.91;63.81
13713;DHT22;6928;50.546;7.120;2023-04-03T08:27:39;6.38;63.54
13713;DHT22;6928;50.546;7.120;2023-04-03T08:30:07;6.14;64.20
13713;DHT22;6928;50.546;7.120;2023-04-03T08:32:35;6.13;64.16
13713;DHT22;6928;50.546;7.120;2023-04-03T08:35:02;6.76;63.75
13713;DHT22;6928;50.546;7.120;2023-04-03T08:37:29;6.69;62.34
13713;DHT22;6928;50.546;7.120;2023-04-03T08:39:56;6.86;62.55
13713;DHT22;6928;50.546;7.120;2023-04-03T08:42:40;6.61;63.08
13713;DHT22;6928;50.546;7.120;2023-04-03T08:45:12;7.04;61.25
13713;DHT22;6928;50.546;7.120;2023-04-03T08:47:44;7.07;61.95
13713;DHT22;6928;50.546;7.120;2023-04-03T08:50:16;7.20;59.52
13713;DHT22;6928;50.546;7.120;2023-04-03T08:52:47;6.89;61.23
13713;DHT22;6928;50.546;7.120;2023-04-03T08:55:24;6.75;61.30
13713;DHT22;6928;50.546;7.120;2023-04-03T08:58:00;6.53;61.74
13713;DHT22;6928;50.546;7.120;2023-04-03T09:00:32;6.53;61.91
13713;DHT22;6928;50.546;7.120;2023-04-03T09:03:00;6.69;62.50
13713;DHT22;6928;50.546;7.120;2023-04-03T09:05:35;6.53;61.71
13713;DHT22;6928;50.546;7.120;2023-04-03T09:08:14;5.90;62.22
13713;DHT22;6928;50.546;7.120;2023-04-03T09:10:44;6.17;63.01
13713;DHT22;6928;50.546;7.120;2023-04-03T09:13:24;6.46;62.38
13713;DHT22;6928;50.546;7.120;2023-04-03T09:15:53;6.71;61.88
13713;DHT22;6928;50.546;7.120;2023-04-03T09:18:23;6.80;61.52
13713;DHT22;6928;50.546;7.120;2023-04-03T09:21:01;6.51;61.74
13713;DHT22;6928;50.546;7.120;2023-04-03T09:23:32;6.93;60.24
13713;DHT22;6928;50.546;7.120;2023-04-03T09:26:03;7.06;60.46
13713;DHT22;6928;50.546;7.120;2023-04-03T09:28:38;7.03;60.76
13713;DHT22;6928;50.546;7.120;2023-04-03T09:31:19;6.76;60.85
13713;DHT22;6928;50.546;7.120;2023-04-03T09:33:48;7.10;60.03
13713;DHT22;6928;50.546;7.120;2023-04-03T09:36:41;6.95;59.97
13713;DHT22;6928;50.546;7.120;2023-04-03T09:39:13;6.88;61.36
13713;DHT22;6928;50.546;7.120;2023-04-03T09:41:57;7.10;60.66
13713;DHT22;6928;50.546;7.120;2023-04-03T09:44:29;7.58;59.10
13713;DHT22;6928;50.546;7.120;2023-04-03T09:46:56;7.17;58.81
13713;DHT22;6928;50.546;7.120;2023-04-03T09:49:23;7.56;59.35
13713;DHT22;6928;50.546;7.120;2023-04-03T09:51:50;7.61;58.24
13713;DHT22;6928;50.546;7.120;2023-04-03T09:54:35;7.30;58.98
13713;DHT22;6928;50.546;7.120;2023-04-03T09:57:10;7.30;58.77
13713;DHT22;6928;50.546;7.120;2023-04-03T09:59:44;7.13;59.02
13713;DHT22;6928;50.546;7.120;2023-04-03T10:02:34;7.26;59.67
13713;DHT22;6928;50.546;7.120;2023-04-03T10:05:01;7.58;59.72
13713;DHT22;6928;50.546;7.120;2023-04-03T10:07:33;7.86;57.84
13713;DHT22;6928;50.546;7.120;2023-04-03T10:10:10;7.78;58.96
13713;DHT22;6928;50.546;7.120;2023-04-03T10:12:41;7.41;58.98
13713;DHT22;6928;50.546;7.120;2023-04-03T10:15:13;8.31;57.58
13713;DHT22;6928;50.546;7.120;2023-04-03T10:17:53;8.19;55.47
13713;DHT22;6928;50.546;7.120;2023-04-03T10:20:31;8.30;56.89
13713;DHT22;6928;50.546;7.120;2023-04-03T10:23:17;7.88;56.34
13713;DHT22;6928;50.546;7.120;2023-04-03T10:25:56;8.29;55.74
13713;DHT22;6928;50.546;7.120;2023-04-03T10:28:33;8.33;55.23
13713;DHT22;6928;50.546;7.120;2023-04-03T10:31:13;8.62;53.89
13713;DHT22;6928;50.546;7.120;2023-04-03T10:33:53;8.61;52.07
13713;DHT22;6928;50.546;7.120;2023-04-03T10:36:34;8.87;50.50
13713;DHT22;6928;50.546;7.120;2023-04-03T10:39:13;8.37;49.57
13713;DHT22;6928;50.546;7.120;2023-04-03T10:41:56;8.38;43.72
13713;DHT22;6928;50.546;7.120;2023-04-03T10:44:36;8.60;45.58
13713;DHT22;6928;50.546;7.120;2023-04-03T10:47:12;8.67;47.70
13713;DHT22;6928;50.546;7.120;2023-04-03T10:49:54;8.21;50.06
13713;DHT22;6928;50.546;7.120;2023-04-03T10:52:27;8.20;49.34
13713;DHT22;6928;50.546;7.120;2023-04-03T10:55:07;8.09;47.67
13713;DHT22;6928;50.546;7.120;2023-04-03T10:57:37;9.09;48.55
13713;DHT22;6928;50.546;7.120;2023-04-03T11:00:10;8.76;47.40
13713;DHT22;6928;50.546;7.120;2023-04-03T11:02:48;8.92;46.83
13713;DHT22;6928;50.546;7.120;2023-04-03T11:05:25;8.71;46.39
13713;DHT22;6928;50.546;7.120;2023-04-03T11:07:55;8.52;46.03
13713;DHT22;6928;50.546;7.120;2023-04-03T11:10:39;8.79;47.66
13713;DHT22;6928;50.546;7.120;2023-04-03T11:13:13;8.41;47.58
13713;DHT22;6928;50.546;7.120;2023-04-03T11:15:41;8.75;48.24
13713;DHT22;6928;50.546;7.120;2023-04-03T11:18:14;8.93;48.22
13713;DHT22;6928;50.546;7.120;2023-04-03T11:20:57;9.16;46.50
13713;DHT22;6928;50.546;7.120;2023-04-03T11:23:30;9.10;46.18
13713;DHT22;6928;50.546;7.120;2023-04-03T11:26:10;8.99;44.05
13713;DHT22;6928;50.546;7.120;2023-04-03T11:28:37;9.37;44.63
13713;DHT22;6928;50.546;7.120;2023-04-03T11:31:18;9.40;44.61
13713;DHT22;6928;50.546;7.120;2023-04-03T11:33:58;8.98;44.94
13713;DHT22;6928;50.546;7.120;2023-04-03T11:36:34;9.47;44.53
13713;DHT22;6928;50.546;7.120;2023-04-03T11:39:16;9.34;43.87
13713;DHT22;6928;50.546;7.120;2023-04-03T11:41:44;9.57;42.06
13713;DHT22;6928;50.546;7.120;2023-04-03T11:44:32;9.48;42.07
13713;DHT22;6928;50.546;7.120;2023-04-03T11:47:03;9.39;42.84
13713;DHT22;6928;50.546;7.120;2023-04-03T11:49:59;9.55;42.93
13713;DHT22;6928;50.546;7.120;2023-04-03T11:53:03;10.10;42.10
13713;DHT22;6928;50.546;7.120;2023-04-03T11:55:57;9.70;39.12
13713;DHT22;6928;50.546;7.120;2023-04-03T11:58:26;9.91;39.57
13713;DHT22;6928;50.546;7.120;2023-04-03T12:01:08;9.47;38.39
13713;DHT22;6928;50.546;7.120;2023-04-03T12:04:08;9.33;38.85
13713;DHT22;6928;50.546;7.120;2023-04-03T12:07:13;9.82;38.33
13713;DHT22;6928;50.546;7.120;2023-04-03T12:10:17;9.27;39.26
13713;DHT22;6928;50.546;7.120;2023-04-03T12:12:56;10.13;38.43
13713;DHT22;6928;50.546;7.120;2023-04-03T12:15:49;9.70;39.04
13713;DHT22;6928;50.546;7.120;2023-04-03T12:19:00;9.78;38.10
13713;DHT22;6928;50.546;7.120;2023-04-03T12:22:15;10.43;39.02
13713;DHT22;6928;50.546;7.120;2023-04-03T12:24:46;10.10;39.08
13713;DHT22;6928;50.546;7.120;2023-04-03T12:27:30;9.77;38.87
13713;DHT22;6928;50.546;7.120;2023-04-03T12:30:24;9.95;40.26
13713;DHT22;6928;50.546;7.120;2023-04-03T12:33:05;10.03;38.26
13713;DHT22;6928;50.546;7.120;2023-04-03T12:35:43;10.02;38.67
13713;DHT22;6928;50.546;7.120;2023-04-03T12:38:48;9.52;40.20
13713;DHT22;6928;50.546;7.120;2023-04-03T12:41:23;9.37;40.11
13713;DHT22;6928;50.546;7.120;2023-04-03T12:44:07;9.46;40.13
13713;DHT22;6928;50.546;7.120;2023-04-03T12:46:43;9.87;38.73
13713;DHT22;6928;50.546;7.120;2023-04-03T12:49:26;9.52;39.59
13713;DHT22;6928;50.546;7.120;2023-04-03T12:51:57;10.10;39.32
13713;DHT22;6928;50.546;7.120;2023-04-03T12:54:31;9.91;39.33
13713;DHT22;6928;50.546;7.120;2023-04-03T12:57:15;9.68;39.62
13713;DHT22;6928;50.546;7.120;2023-04-03T12:59:43;9.65;40.20
13713;DHT22;6928;50.546;7.120;2023-04-03T13:02:22;9.43;40.27
13713;DHT22;6928;50.546;7.120;2023-04-03T13:04:50;9.39;40.44
13713;DHT22;6928;50.546;7.120;2023-04-03T13:07:22;9.16;41.88
13713;DHT22;6928;50.546;7.120;2023-04-03T13:10:14;9.20;41.53
13713;DHT22;6928;50.546;7.120;2023-04-03T13:12:50;9.23;39.81
13713;DHT22;6928;50.546;7.120;2023-04-03T13:15:21;10.13;38.10
13713;DHT22;6928;50.546;7.120;2023-04-03T13:17:48;10.25;37.88
13713;DHT22;6928;50.546;7.120;2023-04-03T13:20:22;9.77;38.75
13713;DHT22;6928;50.546;7.120;2023-04-03T13:22:55;9.85;38.95
13713;DHT22;6928;50.546;7.120;2023-04-03T13:25:27;10.41;38.91
13713;DHT22;6928;50.546;7.120;2023-04-03T13:27:56;10.02;39.70
13713;DHT22;6928;50.546;7.120;2023-04-03T13:30:29;10.16;39.57
13713;DHT22;6928;50.546;7.120;2023-04-03T13:32:59;10.02;40.40
13713;DHT22;6928;50.546;7.120;2023-04-03T13:35:31;10.32;40.24
13713;DHT22;6928;50.546;7.120;2023-04-03T13:38:01;9.94;42.10
13713;DHT22;6928;50.546;7.120;2023-04-03T13:40:30;9.65;43.44
13713;DHT22;6928;50.546;7.120;2023-04-03T13:43:04;9.74;42.63
13713;DHT22;6928;50.546;7.120;2023-04-03T13:45:32;9.84;42.84
13713;DHT22;6928;50.546;7.120;2023-04-03T13:48:18;9.94;41.59
13713;DHT22;6928;50.546;7.120;2023-04-03T13:50:57;9.51;42.91
13713;DHT22;6928;50.546;7.120;2023-04-03T13:53:25;9.54;43.15
13713;DHT22;6928;50.546;7.120;2023-04-03T13:56:05;9.92;43.06
13713;DHT22;6928;50.546;7.120;2023-04-03T13:58:34;10.37;42.40
13713;DHT22;6928;50.546;7.120;2023-04-03T14:01:10;10.44;41.13
13713;DHT22;6928;50.546;7.120;2023-04-03T14:03:43;10.18;40.97
13713;DHT22;6928;50.546;7.120;2023-04-03T14:06:14;10.26;41.97
13713;DHT22;6928;50.546;7.120;2023-04-03T14:08:42;9.92;39.57
13713;DHT22;6928;50.546;7.120;2023-04-03T14:11:16;10.55;40.53
13713;DHT22;6928;50.546;7.120;2023-04-03T14:13:45;9.85;40.34
13713;DHT22;6928;50.546;7.120;2023-04-03T14:16:14;10.13;40.65
13713;DHT22;6928;50.546;7.120;2023-04-03T14:18:42;10.19;41.67
13713;DHT22;6928;50.546;7.120;2023-04-03T14:21:12;10.20;41.05
13713;DHT22;6928;50.546;7.120;2023-04-03T14:23:39;9.84;40.81
13713;DHT22;6928;50.546;7.120;2023-04-03T14:26:13;9.89;39.95
13713;DHT22;6928;50.546;7.120;2023-04-03T14:28:42;9.58;40.75
13713;DHT22;6928;50.546;7.120;2023-04-03T14:31:09;9.48;40.98
13713;DHT22;6928;50.546;7.120;2023-04-03T14:33:37;9.70;41.74
13713;DHT22;6928;50.546;7.120;2023-04-03T14:36:13;10.03;41.38
13713;DHT22;6928;50.546;7.120;2023-04-03T14:38:42;9.87;42.14
13713;DHT22;6928;50.546;7.120;2023-04-03T14:41:14;10.55;40.87
13713;DHT22;6928;50.546;7.120;2023-04-03T14:43:41;10.60;40.57
13713;DHT22;6928;50.546;7.120;2023-04-03T14:46:13;10.13;41.36
13713;DHT22;6928;50.546;7.120;2023-04-03T14:48:41;9.98;41.45
13713;DHT22;6928;50.546;7.120;2023-04-03T14:51:10;9.95;40.16
13713;DHT22;6928;50.546;7.120;2023-04-03T14:53:38;9.57;40.65
13713;DHT22;6928;50.546;7.120;2023-04-03T14:56:13;9.82;40.12
13713;DHT22;6928;50.546;7.120;2023-04-03T14:58:41;10.01;41.44
13713;DHT22;6928;50.546;7.120;2023-04-03T15:01:10;9.88;40.29
13713;DHT22;6928;50.546;7.120;2023-04-03T15:03:37;9.89;40.59
13713;DHT22;6928;50.546;7.120;2023-04-03T15:06:04;10.01;39.93
13713;DHT22;6928;50.546;7.120;2023-04-03T15:08:31;9.97;39.97
13713;DHT22;6928;50.546;7.120;2023-04-03T15:10:58;10.08;38.89
13713;DHT22;6928;50.546;7.120;2023-04-03T15:13:27;10.16;39.34
13713;DHT22;6928;50.546;7.120;2023-04-03T15:15:54;9.91;40.58
13713;DHT22;6928;50.546;7.120;2023-04-03T15:18:23;10.08;41.11
13713;DHT22;6928;50.546;7.120;2023-04-03T15:20:51;9.71;41.52
13713;DHT22;6928;50.546;7.120;2023-04-03T15:23:18;9.74;41.60
13713;DHT22;6928;50.546;7.120;2023-04-03T15:25:47;9.72;42.40
13713;DHT22;6928;50.546;7.120;2023-04-03T15:28:21;9.84;41.97
13713;DHT22;6928;50.546;7.120;2023-04-03T15:30:50;9.58;42.05
13713;DHT22;6928;50.546;7.120;2023-04-03T15:33:17;9.77;41.56
13713;DHT22;6928;50.546;7.120;2023-04-03T15:35:44;9.81;41.35
13713;DHT22;6928;50.546;7.120;2023-04-03T15:38:11;9.72;41.71
13713;DHT22;6928;50.546;7.120;2023-04-03T15:40:38;10.02;41.36
13713;DHT22;6928;50.546;7.120;2023-04-03T15:43:05;9.88;42.03
13713;DHT22;6928;50.546;7.120;2023-04-03T15:45:34;9.57;41.10
13713;DHT22;6928;50.546;7.120;2023-04-03T15:48:03;9.75;40.98
13713;DHT22;6928;50.546;7.120;2023-04-03T15:50:31;10.02;41.06
13713;DHT22;6928;50.546;7.120;2023-04-03T15:52:59;9.85;40.56
13713;DHT22;6928;50.546;7.120;2023-04-03T15:55:30;10.50;41.01
13713;DHT22;6928;50.546;7.120;2023-04-03T15:57:57;9.97;40.04
13713;DHT22;6928;50.546;7.120;2023-04-03T16:00:25;9.91;40.42
13713;DHT22;6928;50.546;7.120;2023-04-03T16:02:56;9.92;41.20
13713;DHT22;6928;50.546;7.120;2023-04-03T16:05:25;9.91;41.37
13713;DHT22;6928;50.546;7.120;2023-04-03T16:07:52;10.02;42.08
13713;DHT22;6928;50.546;7.120;2023-04-03T16:10:20;9.98;42.58
13713;DHT22;6928;50.546;7.120;2023-04-03T16:12:47;9.99;41.96
13713;DHT22;6928;50.546;7.120;2023-04-03T16:15:14;9.91;42.44
13713;DHT22;6928;50.546;7.120;2023-04-03T16:17:41;10.10;42.27
13713;DHT22;6928;50.546;7.120;2023-04-03T16:20:11;10.12;42.52
13713;DHT22;6928;50.546;7.120;2023-04-03T16:22:40;9.75;42.01
13713;DHT22;6928;50.546;7.120;2023-04-03T16:25:08;9.72;41.27